Impacts TAF Board
For situational awareness. Not to be used for flight planning purposes.
IDs:

KCVS - Clovis/Cannon AFB, NM, US

Issued at 2000 UTC 01 Feb 2023
Updated at 2131 UTC 01 Feb 2023
Potential Impact None Slight Moderate High
Time2103Z 01/22Z 01/23Z 02/00Z 02/01Z 02/02Z 02/03Z 02/04Z 02/05Z 02/06Z 02/07Z 02/08Z 02/09Z 02/10Z>>
Type OBS PRVL PRVL PRVL PRVL PRVL PRVL PRVL PRVL PRVL PRVL PRVL PRVL PRVL
VIS 10 >6 >6 >6 2.98 2.98 2.98 2.98 2.98 2.98 2.98 2.98 2.98 2.98
CIG 95 90 90 90 20 20 20 20 5 5 5 5 5 5
Cover BKN BKN BKN BKN OVC OVC OVC OVC OVC OVC OVC OVC OVC OVC
FltCat VFR VFR VFR VFR IFR IFR IFR IFR IFR IFR IFR IFR IFR IFR
WX -- -- -- -- -RA -RA -RA -RA -FZRA -FZRA -FZRA -FZRA -FZRA -FZRA
WDir 250 VRB VRB VRB VRB VRB VRB VRB VRB VRB VRB VRB VRB VRB
WSpd 6 6 6 6 6 6 6 6 6 6 6 6 6 6
WGst -- -- -- -- -- -- -- -- -- -- -- -- -- --
WSHgt -- -- -- -- -- -- -- -- -- -- -- -- -- --
WSDir -- -- -- -- -- -- -- -- -- -- -- -- -- --
WSSpd -- -- -- -- -- -- -- -- -- -- -- -- -- --
R04/22
XWnd 3 VRB VRB VRB VRB VRB VRB VRB VRB VRB VRB VRB VRB VRB
HWnd -5 VRB VRB VRB VRB VRB VRB VRB VRB VRB VRB VRB VRB VRB
R13/31
XWnd -5 VRB VRB VRB VRB VRB VRB VRB VRB VRB VRB VRB VRB VRB
HWnd -3 VRB VRB VRB VRB VRB VRB VRB VRB VRB VRB VRB VRB VRB

NOTE: LAMP data beyond the time of the TAF data is denoted as LAMP in Type and colored magenta.

Raw TAF
TAF AMD KCVS 012000Z 0120/0300 VRB06KT 9999 BKN090 QNH3008INS
  BECMG 0201/0202 VRB06KT 4800 -RA OVC020 QNH3008INS
  BECMG 0205/0206 VRB06KT 4800 -FZRA OVC005 QNH3015INS
  BECMG 0212/0213 VRB06KT 1600 FZFG BKN005 QNH3016INS
  BECMG 0215/0216 VRB06KT 9999 NSW SKC QNH3024INS TX01/0121Z TNM06/0210Z


Raw METAR
KCVS 012103Z 25006KT 10SM BKN095 02/00 A3007 RMK SLP202 T00150000 $
KCVS 011955Z 21010KT 10SM FEW013 OVC090 M00/M00 A3011 RMK SLP220 T10041005 $
KCVS 011858Z 21011KT 10SM BKN009 OVC090 M02/M02 A3014 RMK CIG 008V090 BKN V SCT SLP238 P0000 T10211022 $

METAR Board
Radar Display
Forecast Discussion

For situational awareness. Not to be used for flight planning purposes.